sensor_id;sensor_type;location;lat;lon;timestamp;pressure;altitude;pressure_sealevel;temperature;humidity
15750;BME280;7976;52.526;13.326;2023-07-31T00:01:47;100644.41;;;16.68;94.03
15750;BME280;7976;52.526;13.326;2023-07-31T00:04:16;100630.38;;;16.68;94.40
15750;BME280;7976;52.526;13.326;2023-07-31T00:06:42;100638.28;;;16.68;94.09
15750;BME280;7976;52.526;13.326;2023-07-31T00:09:09;100639.22;;;16.67;94.15
15750;BME280;7976;52.526;13.326;2023-07-31T00:11:36;100641.00;;;16.66;94.38
15750;BME280;7976;52.526;13.326;2023-07-31T00:14:03;100645.47;;;16.66;94.54
15750;BME280;7976;52.526;13.326;2023-07-31T00:16:30;100643.75;;;16.65;94.60
15750;BME280;7976;52.526;13.326;2023-07-31T00:18:57;100638.34;;;16.66;94.56
15750;BME280;7976;52.526;13.326;2023-07-31T00:21:25;100634.69;;;16.69;94.46
15750;BME280;7976;52.526;13.326;2023-07-31T00:23:52;100634.69;;;16.69;94.35
15750;BME280;7976;52.526;13.326;2023-07-31T00:26:18;100628.53;;;16.68;93.87
15750;BME280;7976;52.526;13.326;2023-07-31T00:28:45;100618.81;;;16.69;94.20
15750;BME280;7976;52.526;13.326;2023-07-31T00:31:14;100619.50;;;16.72;93.77
15750;BME280;7976;52.526;13.326;2023-07-31T00:33:40;100614.00;;;16.75;93.76
15750;BME280;7976;52.526;13.326;2023-07-31T00:36:07;100615.69;;;16.76;93.88
15750;BME280;7976;52.526;13.326;2023-07-31T00:38:36;100615.88;;;16.73;94.01
15750;BME280;7976;52.526;13.326;2023-07-31T00:41:02;100613.44;;;16.70;93.60
15750;BME280;7976;52.526;13.326;2023-07-31T00:43:30;100607.19;;;16.71;93.64
15750;BME280;7976;52.526;13.326;2023-07-31T00:45:57;100612.31;;;16.74;93.94
15750;BME280;7976;52.526;13.326;2023-07-31T00:48:25;100610.38;;;16.76;93.99
15750;BME280;7976;52.526;13.326;2023-07-31T00:50:53;100613.78;;;16.78;93.59
15750;BME280;7976;52.526;13.326;2023-07-31T00:53:21;100611.03;;;16.80;93.50
15750;BME280;7976;52.526;13.326;2023-07-31T00:55:52;100608.13;;;16.84;93.53
15750;BME280;7976;52.526;13.326;2023-07-31T00:58:19;100609.69;;;16.87;93.64
15750;BME280;7976;52.526;13.326;2023-07-31T01:00:46;100606.03;;;16.89;93.60
15750;BME280;7976;52.526;13.326;2023-07-31T01:03:12;100600.53;;;16.92;93.53
15750;BME280;7976;52.526;13.326;2023-07-31T01:05:49;100592.50;;;16.94;93.81
15750;BME280;7976;52.526;13.326;2023-07-31T01:08:29;100602.00;;;16.96;93.48
15750;BME280;7976;52.526;13.326;2023-07-31T01:11:07;100602.88;;;16.97;93.61
15750;BME280;7976;52.526;13.326;2023-07-31T01:13:38;100599.19;;;16.99;93.74
15750;BME280;7976;52.526;13.326;2023-07-31T01:16:05;100596.34;;;17.02;93.50
15750;BME280;7976;52.526;13.326;2023-07-31T01:18:32;100587.34;;;17.05;93.92
15750;BME280;7976;52.526;13.326;2023-07-31T01:21:18;100592.53;;;17.06;93.82
15750;BME280;7976;52.526;13.326;2023-07-31T01:24:22;100594.44;;;17.04;93.28
15750;BME280;7976;52.526;13.326;2023-07-31T01:26:57;100585.88;;;17.01;93.28
15750;BME280;7976;52.526;13.326;2023-07-31T01:29:36;100584.03;;;17.01;93.49
15750;BME280;7976;52.526;13.326;2023-07-31T01:32:07;100591.25;;;16.99;93.51
15750;BME280;7976;52.526;13.326;2023-07-31T01:34:37;100593.16;;;16.97;93.60
15750;BME280;7976;52.526;13.326;2023-07-31T01:37:05;100598.34;;;16.99;93.75
15750;BME280;7976;52.526;13.326;2023-07-31T01:39:31;100588.63;;;16.99;93.73
15750;BME280;7976;52.526;13.326;2023-07-31T01:42:00;100587.66;;;17.00;93.82
15750;BME280;7976;52.526;13.326;2023-07-31T01:44:27;100575.19;;;17.02;93.75
15750;BME280;7976;52.526;13.326;2023-07-31T01:46:54;100570.81;;;17.01;93.56
15750;BME280;7976;52.526;13.326;2023-07-31T01:49:21;100576.88;;;17.03;93.97
15750;BME280;7976;52.526;13.326;2023-07-31T01:51:48;100566.38;;;17.02;94.05
15750;BME280;7976;52.526;13.326;2023-07-31T01:54:15;100563.63;;;17.03;94.13
15750;BME280;7976;52.526;13.326;2023-07-31T01:56:41;100561.84;;;17.04;94.23
15750;BME280;7976;52.526;13.326;2023-07-31T01:59:09;100562.59;;;17.06;93.80
15750;BME280;7976;52.526;13.326;2023-07-31T02:01:36;100562.50;;;17.07;93.66
15750;BME280;7976;52.526;13.326;2023-07-31T02:04:03;100557.41;;;17.04;93.81
15750;BME280;7976;52.526;13.326;2023-07-31T02:06:30;100560.78;;;17.06;93.80
15750;BME280;7976;52.526;13.326;2023-07-31T02:08:57;100557.22;;;17.07;93.73
15750;BME280;7976;52.526;13.326;2023-07-31T02:11:24;100552.03;;;17.06;94.02
15750;BME280;7976;52.526;13.326;2023-07-31T02:13:51;100558.13;;;17.06;94.41
15750;BME280;7976;52.526;13.326;2023-07-31T02:16:19;100549.28;;;17.07;94.06
15750;BME280;7976;52.526;13.326;2023-07-31T02:18:46;100550.97;;;17.08;93.84
15750;BME280;7976;52.526;13.326;2023-07-31T02:21:12;100548.09;;;17.11;93.70
15750;BME280;7976;52.526;13.326;2023-07-31T02:23:38;100549.81;;;17.12;94.13
15750;BME280;7976;52.526;13.326;2023-07-31T02:26:05;100546.09;;;17.15;94.44
15750;BME280;7976;52.526;13.326;2023-07-31T02:28:32;100546.00;;;17.16;94.23
15750;BME280;7976;52.526;13.326;2023-07-31T02:30:59;100546.84;;;17.17;94.21
15750;BME280;7976;52.526;13.326;2023-07-31T02:33:27;100548.56;;;17.18;94.53
15750;BME280;7976;52.526;13.326;2023-07-31T02:35:56;100547.50;;;17.20;94.68
15750;BME280;7976;52.526;13.326;2023-07-31T02:38:23;100543.06;;;17.21;94.56
15750;BME280;7976;52.526;13.326;2023-07-31T02:40:49;100530.66;;;17.21;94.89
15750;BME280;7976;52.526;13.326;2023-07-31T02:43:16;100528.00;;;17.21;94.58
15750;BME280;7976;52.526;13.326;2023-07-31T02:45:43;100528.97;;;17.20;94.44
15750;BME280;7976;52.526;13.326;2023-07-31T02:48:10;100519.38;;;17.19;94.41
15750;BME280;7976;52.526;13.326;2023-07-31T02:50:38;100524.66;;;17.19;94.18
15750;BME280;7976;52.526;13.326;2023-07-31T02:53:05;100520.19;;;17.20;93.71
15750;BME280;7976;52.526;13.326;2023-07-31T02:55:32;100519.38;;;17.19;93.82
15750;BME280;7976;52.526;13.326;2023-07-31T02:57:59;100528.97;;;17.20;94.28
15750;BME280;7976;52.526;13.326;2023-07-31T03:00:26;100528.13;;;17.20;94.24
15750;BME280;7976;52.526;13.326;2023-07-31T03:02:53;100524.84;;;17.16;93.88
15750;BME280;7976;52.526;13.326;2023-07-31T03:05:20;100517.88;;;17.15;94.45
15750;BME280;7976;52.526;13.326;2023-07-31T03:07:48;100527.19;;;17.21;93.78
15750;BME280;7976;52.526;13.326;2023-07-31T03:10:15;100529.72;;;17.22;93.86
15750;BME280;7976;52.526;13.326;2023-07-31T03:12:42;100522.66;;;17.23;94.31
15750;BME280;7976;52.526;13.326;2023-07-31T03:15:10;100519.16;;;17.22;93.96
15750;BME280;7976;52.526;13.326;2023-07-31T03:17:36;100520.00;;;17.23;93.69
15750;BME280;7976;52.526;13.326;2023-07-31T03:20:04;100513.09;;;17.20;93.54
15750;BME280;7976;52.526;13.326;2023-07-31T03:22:31;100521.16;;;17.19;93.32
15750;BME280;7976;52.526;13.326;2023-07-31T03:24:59;100515.75;;;17.20;93.46
15750;BME280;7976;52.526;13.326;2023-07-31T03:27:26;100510.47;;;17.20;93.44
15750;BME280;7976;52.526;13.326;2023-07-31T03:29:53;100506.84;;;17.21;93.62
15750;BME280;7976;52.526;13.326;2023-07-31T03:32:20;100505.91;;;17.22;93.48
15750;BME280;7976;52.526;13.326;2023-07-31T03:34:48;100512.06;;;17.23;93.18
15750;BME280;7976;52.526;13.326;2023-07-31T03:37:15;100503.38;;;17.21;93.35
15750;BME280;7976;52.526;13.326;2023-07-31T03:39:42;100502.53;;;17.20;93.15
15750;BME280;7976;52.526;13.326;2023-07-31T03:42:10;100500.97;;;17.18;93.25
15750;BME280;7976;52.526;13.326;2023-07-31T03:44:37;100502.00;;;17.15;93.54
15750;BME280;7976;52.526;13.326;2023-07-31T03:47:05;100498.59;;;17.13;93.76
15750;BME280;7976;52.526;13.326;2023-07-31T03:49:32;100491.63;;;17.12;93.43
15750;BME280;7976;52.526;13.326;2023-07-31T03:51:59;100481.97;;;17.11;93.18
15750;BME280;7976;52.526;13.326;2023-07-31T03:54:25;100493.41;;;17.12;93.28
15750;BME280;7976;52.526;13.326;2023-07-31T03:56:52;100489.09;;;17.11;93.57
15750;BME280;7976;52.526;13.326;2023-07-31T03:59:20;100490.13;;;17.08;93.64
15750;BME280;7976;52.526;13.326;2023-07-31T04:01:47;100485.81;;;17.07;93.40
15750;BME280;7976;52.526;13.326;2023-07-31T04:04:14;100486.72;;;17.06;93.69
15750;BME280;7976;52.526;13.326;2023-07-31T04:06:41;100485.81;;;17.07;93.42
15750;BME280;7976;52.526;13.326;2023-07-31T04:09:07;100487.47;;;17.08;93.84
15750;BME280;7976;52.526;13.326;2023-07-31T04:11:34;100484.03;;;17.08;93.53
15750;BME280;7976;52.526;13.326;2023-07-31T04:14:01;100483.28;;;17.06;93.72
15750;BME280;7976;52.526;13.326;2023-07-31T04:16:29;100477.22;;;17.04;93.43
15750;BME280;7976;52.526;13.326;2023-07-31T04:18:56;100476.47;;;17.02;93.60
15750;BME280;7976;52.526;13.326;2023-07-31T04:21:23;100474.59;;;17.04;93.36
15750;BME280;7976;52.526;13.326;2023-07-31T04:23:50;100469.09;;;17.07;93.48
15750;BME280;7976;52.526;13.326;2023-07-31T04:26:17;100465.41;;;17.09;93.63
15750;BME280;7976;52.526;13.326;2023-07-31T04:28:44;100460.94;;;17.10;93.68
15750;BME280;7976;52.526;13.326;2023-07-31T04:31:10;100467.06;;;17.10;93.61
15750;BME280;7976;52.526;13.326;2023-07-31T04:33:38;100462.66;;;17.11;93.38
15750;BME280;7976;52.526;13.326;2023-07-31T04:36:05;100470.56;;;17.11;93.11
15750;BME280;7976;52.526;13.326;2023-07-31T04:38:32;100462.84;;;17.08;93.65
15750;BME280;7976;52.526;13.326;2023-07-31T04:40:59;100466.44;;;17.07;93.31
15750;BME280;7976;52.526;13.326;2023-07-31T04:43:26;100457.47;;;17.09;93.66
15750;BME280;7976;52.526;13.326;2023-07-31T04:45:52;100455.47;;;17.13;93.37
15750;BME280;7976;52.526;13.326;2023-07-31T04:48:19;100451.97;;;17.12;93.30
15750;BME280;7976;52.526;13.326;2023-07-31T04:50:48;100449.53;;;17.09;93.60
15750;BME280;7976;52.526;13.326;2023-07-31T04:53:14;100456.72;;;17.07;93.34
15750;BME280;7976;52.526;13.326;2023-07-31T04:55:41;100455.97;;;17.05;93.19
15750;BME280;7976;52.526;13.326;2023-07-31T04:58:08;100465.50;;;17.08;93.38
15750;BME280;7976;52.526;13.326;2023-07-31T05:00:35;100461.03;;;17.08;93.57
15750;BME280;7976;52.526;13.326;2023-07-31T05:03:02;100459.56;;;17.04;93.18
15750;BME280;7976;52.526;13.326;2023-07-31T05:05:29;100451.63;;;17.04;93.63
15750;BME280;7976;52.526;13.326;2023-07-31T05:07:57;100448.88;;;17.06;93.75
15750;BME280;7976;52.526;13.326;2023-07-31T05:10:24;100454.81;;;17.09;93.75
15750;BME280;7976;52.526;13.326;2023-07-31T05:12:51;100451.00;;;17.13;93.56
15750;BME280;7976;52.526;13.326;2023-07-31T05:15:18;100455.88;;;17.19;93.65
15750;BME280;7976;52.526;13.326;2023-07-31T05:17:45;100453.94;;;17.21;93.40
15750;BME280;7976;52.526;13.326;2023-07-31T05:20:12;100459.06;;;17.24;93.44
15750;BME280;7976;52.526;13.326;2023-07-31T05:22:40;100453.75;;;17.24;93.73
15750;BME280;7976;52.526;13.326;2023-07-31T05:25:09;100450.03;;;17.27;93.58
15750;BME280;7976;52.526;13.326;2023-07-31T05:27:35;100455.44;;;17.25;93.63
15750;BME280;7976;52.526;13.326;2023-07-31T05:30:03;100448.25;;;17.27;93.70
15750;BME280;7976;52.526;13.326;2023-07-31T05:32:30;100448.16;;;17.29;93.43
15750;BME280;7976;52.526;13.326;2023-07-31T05:34:57;100446.03;;;17.34;93.45
15750;BME280;7976;52.526;13.326;2023-07-31T05:37:24;100443.03;;;17.38;93.59
15750;BME280;7976;52.526;13.326;2023-07-31T05:39:51;100438.72;;;17.37;93.08
15750;BME280;7976;52.526;13.326;2023-07-31T05:42:19;100446.78;;;17.36;93.32
15750;BME280;7976;52.526;13.326;2023-07-31T05:44:46;100434.38;;;17.36;93.44
15750;BME280;7976;52.526;13.326;2023-07-31T05:47:12;100428.34;;;17.34;93.36
15750;BME280;7976;52.526;13.326;2023-07-31T05:49:39;100432.78;;;17.34;93.59
15750;BME280;7976;52.526;13.326;2023-07-31T05:52:07;100436.94;;;17.38;93.22
15750;BME280;7976;52.526;13.326;2023-07-31T05:54:33;100425.50;;;17.37;93.13
15750;BME280;7976;52.526;13.326;2023-07-31T05:57:00;100429.00;;;17.38;93.52
15750;BME280;7976;52.526;13.326;2023-07-31T05:59:28;100419.47;;;17.35;93.40
15750;BME280;7976;52.526;13.326;2023-07-31T06:01:58;100423.78;;;17.36;93.93
15750;BME280;7976;52.526;13.326;2023-07-31T06:04:25;100430.03;;;17.35;93.31
15750;BME280;7976;52.526;13.326;2023-07-31T06:06:52;100434.59;;;17.33;93.45
15750;BME280;7976;52.526;13.326;2023-07-31T06:09:19;100441.47;;;17.36;93.47
15750;BME280;7976;52.526;13.326;2023-07-31T06:11:46;100428.13;;;17.37;93.48
15750;BME280;7976;52.526;13.326;2023-07-31T06:14:13;100429.81;;;17.38;93.54
15750;BME280;7976;52.526;13.326;2023-07-31T06:16:41;100423.59;;;17.39;93.76
15750;BME280;7976;52.526;13.326;2023-07-31T06:19:10;100420.94;;;17.39;93.44
15750;BME280;7976;52.526;13.326;2023-07-31T06:21:37;100427.91;;;17.40;93.40
15750;BME280;7976;52.526;13.326;2023-07-31T06:24:04;100424.53;;;17.38;93.81
15750;BME280;7976;52.526;13.326;2023-07-31T06:26:31;100435.22;;;17.37;93.55
15750;BME280;7976;52.526;13.326;2023-07-31T06:28:58;100433.53;;;17.36;94.19
15750;BME280;7976;52.526;13.326;2023-07-31T06:31:25;100424.84;;;17.34;94.52
15750;BME280;7976;52.526;13.326;2023-07-31T06:33:54;100424.75;;;17.35;94.91
15750;BME280;7976;52.526;13.326;2023-07-31T06:38:55;100425.59;;;17.48;95.17
15750;BME280;7976;52.526;13.326;2023-07-31T06:41:22;100426.88;;;17.56;94.86
15750;BME280;7976;52.526;13.326;2023-07-31T06:43:48;100420.31;;;17.61;94.77
15750;BME280;7976;52.526;13.326;2023-07-31T06:46:15;100422.38;;;17.69;94.77
15750;BME280;7976;52.526;13.326;2023-07-31T06:48:42;100420.47;;;17.71;94.76
15750;BME280;7976;52.526;13.326;2023-07-31T06:51:11;100422.28;;;17.70;94.74
15750;BME280;7976;52.526;13.326;2023-07-31T06:53:37;100419.75;;;17.69;94.64
15750;BME280;7976;52.526;13.326;2023-07-31T06:56:04;100422.38;;;17.69;95.22
15750;BME280;7976;52.526;13.326;2023-07-31T06:58:31;100420.25;;;17.74;95.29
15750;BME280;7976;52.526;13.326;2023-07-31T07:00:58;100425.63;;;17.85;95.34
15750;BME280;7976;52.526;13.326;2023-07-31T07:03:25;100418.84;;;17.93;94.94
15750;BME280;7976;52.526;13.326;2023-07-31T07:05:51;100415.09;;;17.96;95.17
15750;BME280;7976;52.526;13.326;2023-07-31T07:08:19;100415.34;;;17.93;94.69
15750;BME280;7976;52.526;13.326;2023-07-31T07:10:46;100427.31;;;17.86;94.64
15750;BME280;7976;52.526;13.326;2023-07-31T07:13:13;100424.03;;;17.82;94.60
15750;BME280;7976;52.526;13.326;2023-07-31T07:15:40;100431.34;;;17.79;94.60
15750;BME280;7976;52.526;13.326;2023-07-31T07:18:07;100427.03;;;17.78;95.07
15750;BME280;7976;52.526;13.326;2023-07-31T07:20:36;100427.78;;;17.80;95.26
15750;BME280;7976;52.526;13.326;2023-07-31T07:23:03;100427.44;;;17.84;94.95
15750;BME280;7976;52.526;13.326;2023-07-31T07:25:31;100429.13;;;17.85;94.52
15750;BME280;7976;52.526;13.326;2023-07-31T07:27:57;100438.88;;;17.85;94.59
15750;BME280;7976;52.526;13.326;2023-07-31T07:30:25;100428.28;;;17.85;94.95
15750;BME280;7976;52.526;13.326;2023-07-31T07:32:51;100417.91;;;17.82;94.70
15750;BME280;7976;52.526;13.326;2023-07-31T07:35:18;100423.19;;;17.82;94.89
15750;BME280;7976;52.526;13.326;2023-07-31T07:37:45;100427.56;;;17.83;94.97
15750;BME280;7976;52.526;13.326;2023-07-31T07:40:14;100421.50;;;17.81;94.74
15750;BME280;7976;52.526;13.326;2023-07-31T07:42:43;100415.47;;;17.79;95.08
15750;BME280;7976;52.526;13.326;2023-07-31T07:48:58;100416.72;;;17.86;95.34
15750;BME280;7976;52.526;13.326;2023-07-31T07:51:25;100406.88;;;17.88;94.71
15750;BME280;7976;52.526;13.326;2023-07-31T07:53:52;100410.56;;;17.85;95.21
15750;BME280;7976;52.526;13.326;2023-07-31T07:56:19;100405.63;;;17.81;94.93
15750;BME280;7976;52.526;13.326;2023-07-31T07:58:49;100405.22;;;17.74;95.18
15750;BME280;7976;52.526;13.326;2023-07-31T08:01:16;100406.63;;;17.67;95.87
15750;BME280;7976;52.526;13.326;2023-07-31T08:04:10;100397.31;;;17.62;95.73
15750;BME280;7976;52.526;13.326;2023-07-31T08:06:37;100402.50;;;17.63;96.35
15750;BME280;7976;52.526;13.326;2023-07-31T08:09:04;100401.66;;;17.63;96.25
15750;BME280;7976;52.526;13.326;2023-07-31T08:11:32;100402.59;;;17.62;96.72
15750;BME280;7976;52.526;13.326;2023-07-31T08:14:00;100394.88;;;17.59;96.87
15750;BME280;7976;52.526;13.326;2023-07-31T08:16:27;100387.91;;;17.58;97.18
15750;BME280;7976;52.526;13.326;2023-07-31T08:18:54;100383.34;;;17.60;97.57
15750;BME280;7976;52.526;13.326;2023-07-31T08:21:21;100392.75;;;17.64;97.50
15750;BME280;7976;52.526;13.326;2023-07-31T08:23:48;100399.66;;;17.66;97.16
15750;BME280;7976;52.526;13.326;2023-07-31T08:26:15;100395.91;;;17.69;97.33
15750;BME280;7976;52.526;13.326;2023-07-31T08:28:42;100402.91;;;17.70;97.38
15750;BME280;7976;52.526;13.326;2023-07-31T08:31:11;100384.38;;;17.70;97.13
15750;BME280;7976;52.526;13.326;2023-07-31T08:33:38;100391.59;;;17.68;97.04
15750;BME280;7976;52.526;13.326;2023-07-31T08:36:06;100387.22;;;17.67;97.30
15750;BME280;7976;52.526;13.326;2023-07-31T08:38:32;100388.94;;;17.68;97.68
15750;BME280;7976;52.526;13.326;2023-07-31T08:41:00;100389.44;;;17.73;97.50
15750;BME280;7976;52.526;13.326;2023-07-31T08:43:27;100380.94;;;17.80;97.49
15750;BME280;7976;52.526;13.326;2023-07-31T08:45:54;100391.84;;;17.88;97.50
15750;BME280;7976;52.526;13.326;2023-07-31T08:48:23;100384.50;;;17.92;97.38
15750;BME280;7976;52.526;13.326;2023-07-31T08:50:59;100392.44;;;17.92;97.43
15750;BME280;7976;52.526;13.326;2023-07-31T08:53:25;100382.06;;;17.89;97.44
15750;BME280;7976;52.526;13.326;2023-07-31T08:55:53;100384.50;;;17.92;97.54
15750;BME280;7976;52.526;13.326;2023-07-31T08:58:21;100381.84;;;17.92;97.91
15750;BME280;7976;52.526;13.326;2023-07-31T09:00:50;100379.00;;;17.95;98.04
15750;BME280;7976;52.526;13.326;2023-07-31T09:03:18;100380.44;;;17.99;97.89
15750;BME280;7976;52.526;13.326;2023-07-31T09:05:48;100384.22;;;18.07;98.23
15750;BME280;7976;52.526;13.326;2023-07-31T09:08:18;100382.69;;;18.16;97.44
15750;BME280;7976;52.526;13.326;2023-07-31T09:10:46;100383.22;;;18.21;97.47
15750;BME280;7976;52.526;13.326;2023-07-31T09:13:14;100374.53;;;18.19;97.40
15750;BME280;7976;52.526;13.326;2023-07-31T09:15:44;100381.75;;;18.17;97.21
15750;BME280;7976;52.526;13.326;2023-07-31T09:18:12;100384.63;;;18.14;97.00
15750;BME280;7976;52.526;13.326;2023-07-31T09:20:40;100379.44;;;18.12;96.88
15750;BME280;7976;52.526;13.326;2023-07-31T09:23:10;100381.47;;;18.09;96.96
15750;BME280;7976;52.526;13.326;2023-07-31T09:25:39;100372.88;;;18.05;96.80
15750;BME280;7976;52.526;13.326;2023-07-31T09:28:07;100383.72;;;18.02;96.79
15750;BME280;7976;52.526;13.326;2023-07-31T09:30:47;100379.00;;;17.95;96.83
15750;BME280;7976;52.526;13.326;2023-07-31T09:33:14;100375.84;;;17.90;97.35
15750;BME280;7976;52.526;13.326;2023-07-31T09:35:41;100383.16;;;17.86;97.48
15750;BME280;7976;52.526;13.326;2023-07-31T09:38:12;100381.06;;;17.79;97.76
15750;BME280;7976;52.526;13.326;2023-07-31T09:40:42;100371.16;;;17.70;97.72
15750;BME280;7976;52.526;13.326;2023-07-31T09:43:12;100373.06;;;17.68;98.29
15750;BME280;7976;52.526;13.326;2023-07-31T09:45:41;100376.56;;;17.68;98.43
15750;BME280;7976;52.526;13.326;2023-07-31T09:48:10;100381.50;;;17.73;98.76
15750;BME280;7976;52.526;13.326;2023-07-31T09:50:40;100376.63;;;17.79;98.92
15750;BME280;7976;52.526;13.326;2023-07-31T09:53:10;100378.69;;;17.87;99.17
15750;BME280;7976;52.526;13.326;2023-07-31T09:55:40;100366.94;;;17.91;99.10
15750;BME280;7976;52.526;13.326;2023-07-31T09:58:09;100365.63;;;17.96;98.75
15750;BME280;7976;52.526;13.326;2023-07-31T10:00:37;100361.72;;;18.02;99.00
15750;BME280;7976;52.526;13.326;2023-07-31T10:03:06;100366.78;;;18.05;98.52
15750;BME280;7976;52.526;13.326;2023-07-31T10:05:36;100354.16;;;18.08;98.97
15750;BME280;7976;52.526;13.326;2023-07-31T10:08:08;100356.09;;;18.17;98.68
15750;BME280;7976;52.526;13.326;2023-07-31T10:10:41;100351.69;;;18.29;98.76
15750;BME280;7976;52.526;13.326;2023-07-31T10:13:09;100353.88;;;18.35;98.38
15750;BME280;7976;52.526;13.326;2023-07-31T10:15:36;100351.97;;;18.37;97.90
15750;BME280;7976;52.526;13.326;2023-07-31T10:18:06;100350.03;;;18.39;98.01
15750;BME280;7976;52.526;13.326;2023-07-31T10:20:34;100357.25;;;18.37;97.96
15750;BME280;7976;52.526;13.326;2023-07-31T10:23:02;100352.19;;;18.34;97.28
15750;BME280;7976;52.526;13.326;2023-07-31T10:25:31;100349.88;;;18.29;97.48
15750;BME280;7976;52.526;13.326;2023-07-31T10:28:00;100345.44;;;18.30;97.72
15750;BME280;7976;52.526;13.326;2023-07-31T10:30:30;100342.31;;;18.36;97.53
15750;BME280;7976;52.526;13.326;2023-07-31T10:33:00;100338.16;;;18.44;97.88
15750;BME280;7976;52.526;13.326;2023-07-31T10:35:28;100341.91;;;18.53;97.18
15750;BME280;7976;52.526;13.326;2023-07-31T10:37:55;100342.41;;;18.58;97.62
15750;BME280;7976;52.526;13.326;2023-07-31T10:40:26;100337.59;;;18.63;97.68
15750;BME280;7976;52.526;13.326;2023-07-31T10:42:55;100335.19;;;18.71;97.69
15750;BME280;7976;52.526;13.326;2023-07-31T10:45:33;100336.03;;;18.83;97.63
15750;BME280;7976;52.526;13.326;2023-07-31T10:48:04;100319.91;;;18.97;97.27
15750;BME280;7976;52.526;13.326;2023-07-31T10:50:36;100322.91;;;19.14;96.84
15750;BME280;7976;52.526;13.326;2023-07-31T10:53:04;100307.50;;;19.30;96.26
15750;BME280;7976;52.526;13.326;2023-07-31T10:55:38;100308.44;;;19.40;95.59
15750;BME280;7976;52.526;13.326;2023-07-31T10:58:08;100301.22;;;19.42;94.94
15750;BME280;7976;52.526;13.326;2023-07-31T11:00:39;100300.69;;;19.48;95.04
15750;BME280;7976;52.526;13.326;2023-07-31T11:03:09;100298.13;;;19.58;94.94
15750;BME280;7976;52.526;13.326;2023-07-31T11:05:50;100294.22;;;19.73;94.44
15750;BME280;7976;52.526;13.326;2023-07-31T11:08:22;100291.41;;;19.85;93.81
15750;BME280;7976;52.526;13.326;2023-07-31T11:11:05;100296.59;;;19.87;92.83
15750;BME280;7976;52.526;13.326;2023-07-31T11:13:40;100290.97;;;19.80;92.26
15750;BME280;7976;52.526;13.326;2023-07-31T11:16:09;100291.44;;;19.74;91.87
15750;BME280;7976;52.526;13.326;2023-07-31T11:18:38;100291.44;;;19.74;91.54
15750;BME280;7976;52.526;13.326;2023-07-31T11:21:05;100293.00;;;19.77;90.57
15750;BME280;7976;52.526;13.326;2023-07-31T11:23:32;100301.72;;;19.79;90.65
15750;BME280;7976;52.526;13.326;2023-07-31T11:26:00;100290.97;;;19.80;89.96
15750;BME280;7976;52.526;13.326;2023-07-31T11:28:32;100289.84;;;19.83;89.37
15750;BME280;7976;52.526;13.326;2023-07-31T11:31:01;100291.69;;;19.82;89.15
15750;BME280;7976;52.526;13.326;2023-07-31T11:33:29;100285.66;;;19.80;88.32
15750;BME280;7976;52.526;13.326;2023-07-31T11:35:57;100289.38;;;19.78;88.35
15750;BME280;7976;52.526;13.326;2023-07-31T11:38:30;100292.28;;;19.75;88.02
15750;BME280;7976;52.526;13.326;2023-07-31T11:40:59;100298.47;;;19.75;87.46
15750;BME280;7976;52.526;13.326;2023-07-31T11:43:28;100298.19;;;19.78;86.99
15750;BME280;7976;52.526;13.326;2023-07-31T11:46:01;100299.06;;;19.79;86.62
15750;BME280;7976;52.526;13.326;2023-07-31T11:48:32;100297.47;;;19.76;85.84
15750;BME280;7976;52.526;13.326;2023-07-31T11:51:03;100285.91;;;19.77;85.25
15750;BME280;7976;52.526;13.326;2023-07-31T11:53:38;100275.97;;;19.79;84.78
15750;BME280;7976;52.526;13.326;2023-07-31T11:56:07;100282.00;;;19.81;84.54
15750;BME280;7976;52.526;13.326;2023-07-31T11:58:38;100278.13;;;19.85;84.40
15750;BME280;7976;52.526;13.326;2023-07-31T12:01:06;100286.81;;;19.87;84.10
15750;BME280;7976;52.526;13.326;2023-07-31T12:03:35;100282.34;;;19.88;84.40
15750;BME280;7976;52.526;13.326;2023-07-31T12:06:02;100278.84;;;19.87;84.17
15750;BME280;7976;52.526;13.326;2023-07-31T12:08:29;100273.53;;;19.87;84.24
15750;BME280;7976;52.526;13.326;2023-07-31T12:11:04;100277.16;;;19.86;84.22
15750;BME280;7976;52.526;13.326;2023-07-31T12:13:32;100276.88;;;19.89;84.49
15750;BME280;7976;52.526;13.326;2023-07-31T12:16:03;100279.06;;;19.95;84.01
15750;BME280;7976;52.526;13.326;2023-07-31T12:18:36;100263.31;;;20.04;83.73
15750;BME280;7976;52.526;13.326;2023-07-31T12:21:06;100273.66;;;20.18;83.12
15750;BME280;7976;52.526;13.326;2023-07-31T12:23:36;100274.31;;;20.31;83.33
15750;BME280;7976;52.526;13.326;2023-07-31T12:26:05;100271.56;;;20.42;82.67
15750;BME280;7976;52.526;13.326;2023-07-31T12:28:36;100273.97;;;20.45;82.78
15750;BME280;7976;52.526;13.326;2023-07-31T12:31:05;100264.19;;;20.45;82.36
15750;BME280;7976;52.526;13.326;2023-07-31T12:33:34;100255.09;;;20.48;81.68
15750;BME280;7976;52.526;13.326;2023-07-31T12:36:08;100248.53;;;20.52;81.77
15750;BME280;7976;52.526;13.326;2023-07-31T12:38:36;100253.47;;;20.56;81.09
15750;BME280;7976;52.526;13.326;2023-07-31T12:41:05;100248.72;;;20.60;80.83
15750;BME280;7976;52.526;13.326;2023-07-31T12:43:36;100242.16;;;20.64;80.57
15750;BME280;7976;52.526;13.326;2023-07-31T12:46:04;100231.13;;;20.68;80.50
15750;BME280;7976;52.526;13.326;2023-07-31T12:48:32;100240.66;;;20.71;79.83
15750;BME280;7976;52.526;13.326;2023-07-31T12:51:00;100237.00;;;20.72;79.45
15750;BME280;7976;52.526;13.326;2023-07-31T12:53:27;100237.00;;;20.72;79.85
15750;BME280;7976;52.526;13.326;2023-07-31T12:55:54;100234.63;;;20.69;79.72
15750;BME280;7976;52.526;13.326;2023-07-31T12:58:21;100220.88;;;20.64;79.77
15750;BME280;7976;52.526;13.326;2023-07-31T13:00:48;100223.81;;;20.61;79.52
15750;BME280;7976;52.526;13.326;2023-07-31T13:03:15;100223.09;;;20.59;80.04